createdAt,value
2018-12-18T00:02:05.633Z,2.59
2018-12-18T00:05:15.617Z,2.56
2018-12-18T00:08:20.147Z,2.54
2018-12-18T00:11:24.827Z,2.57
2018-12-18T00:14:29.494Z,2.57
2018-12-18T00:17:34.046Z,2.58
2018-12-18T00:20:38.595Z,2.65
2018-12-18T00:23:43.110Z,2.69
2018-12-18T00:26:47.728Z,2.66
2018-12-18T00:29:52.431Z,2.69
2018-12-18T00:32:56.987Z,2.72
2018-12-18T00:36:01.778Z,2.71
2018-12-18T00:39:11.711Z,2.69
2018-12-18T00:42:16.253Z,2.66
2018-12-18T00:45:20.937Z,2.72
2018-12-18T00:48:25.543Z,2.73
2018-12-18T00:51:30.229Z,2.75
2018-12-18T00:54:34.937Z,2.71
2018-12-18T00:57:39.513Z,2.72
2018-12-18T01:00:44.164Z,2.71
2018-12-18T01:03:52.768Z,2.70
2018-12-18T01:06:55.366Z,2.72
2018-12-18T01:10:00.187Z,2.79
2018-12-18T01:13:04.826Z,2.78
2018-12-18T01:16:09.321Z,2.77
2018-12-18T01:19:14.283Z,2.82
2018-12-18T01:22:18.814Z,2.94
2018-12-18T01:25:23.439Z,2.91
2018-12-18T01:28:27.962Z,2.86
2018-12-18T01:31:32.677Z,2.83
2018-12-18T01:34:37.333Z,2.87
2018-12-18T01:37:42.079Z,2.82
2018-12-18T01:40:46.574Z,2.78
2018-12-18T01:43:51.090Z,2.81
2018-12-18T01:46:55.715Z,2.71
2018-12-18T01:50:00.276Z,2.60
2018-12-18T01:53:04.891Z,2.48
2018-12-18T01:56:09.515Z,2.33
2018-12-18T01:59:14.219Z,2.27
2018-12-18T02:02:18.719Z,2.13
2018-12-18T02:05:23.441Z,2.06
2018-12-18T02:08:28.136Z,1.95
2018-12-18T02:11:32.815Z,2.06
2018-12-18T02:14:37.517Z,1.97
2018-12-18T02:17:42.183Z,1.78
2018-12-18T02:20:46.814Z,1.63
2018-12-18T02:23:51.410Z,1.59
2018-12-18T02:26:55.961Z,1.50
2018-12-18T02:30:00.695Z,1.57
2018-12-18T02:33:05.225Z,1.56
2018-12-18T02:36:09.775Z,1.67
2018-12-18T02:39:14.247Z,1.73
2018-12-18T02:42:18.729Z,1.69
2018-12-18T02:45:23.400Z,1.65
2018-12-18T02:48:28.582Z,1.65
2018-12-18T02:51:37.379Z,1.64
2018-12-18T02:54:41.885Z,1.71
2018-12-18T02:57:46.429Z,1.78
2018-12-18T03:00:50.918Z,1.81
2018-12-18T03:03:55.405Z,2.02
2018-12-18T03:06:59.946Z,2.02
2018-12-18T03:10:04.947Z,2.05
2018-12-18T03:13:09.612Z,2.10
2018-12-18T03:16:14.100Z,2.16
2018-12-18T03:19:18.723Z,2.12
2018-12-18T03:22:23.688Z,2.05
2018-12-18T03:25:28.416Z,2.11
2018-12-18T03:28:32.966Z,2.11
2018-12-18T03:31:39.078Z,2.09
2018-12-18T03:34:43.653Z,2.17
2018-12-18T03:37:48.234Z,2.16
2018-12-18T03:40:52.821Z,2.29
2018-12-18T03:43:57.418Z,2.22
2018-12-18T03:47:01.934Z,2.32
2018-12-18T03:53:24.481Z,2.28
2018-12-18T03:56:29.123Z,2.44
2018-12-18T03:59:33.779Z,2.34
2018-12-18T04:02:38.273Z,2.31
2018-12-18T04:05:42.969Z,2.33
2018-12-18T04:08:47.440Z,2.24
2018-12-18T04:15:20.458Z,2.26
2018-12-18T04:18:25.175Z,2.31
2018-12-18T04:21:29.878Z,2.25
2018-12-18T04:24:34.490Z,2.25
2018-12-18T04:27:38.979Z,2.16
2018-12-18T04:30:43.495Z,2.28
2018-12-18T04:33:48.041Z,2.25
2018-12-18T04:36:52.636Z,2.32
2018-12-18T04:39:57.178Z,2.25
2018-12-18T04:43:01.709Z,2.31
2018-12-18T04:46:06.312Z,2.32
2018-12-18T04:49:10.874Z,2.39
2018-12-18T04:52:15.456Z,2.53
2018-12-18T04:55:20.031Z,2.42
2018-12-18T04:58:24.674Z,2.47
2018-12-18T05:01:29.260Z,2.50
2018-12-18T05:04:33.725Z,2.50
2018-12-18T05:07:38.327Z,2.52
2018-12-18T05:10:42.844Z,2.69
2018-12-18T05:13:47.434Z,2.57
2018-12-18T05:16:51.981Z,2.55
2018-12-18T05:19:56.545Z,2.58
2018-12-18T05:23:01.369Z,2.60
2018-12-18T05:26:06.038Z,2.58
2018-12-18T05:29:10.587Z,2.62
2018-12-18T05:32:15.097Z,2.66
2018-12-18T05:35:19.802Z,2.64
2018-12-18T05:38:24.354Z,2.63
2018-12-18T05:41:28.847Z,2.64
2018-12-18T05:44:33.431Z,2.65
2018-12-18T05:47:38.071Z,2.63
2018-12-18T05:50:42.726Z,2.61
2018-12-18T05:53:47.221Z,2.61
2018-12-18T05:56:51.790Z,2.63
2018-12-18T05:59:56.464Z,2.73
2018-12-18T06:03:00.990Z,2.76
2018-12-18T06:06:05.686Z,2.75
2018-12-18T06:09:10.217Z,2.66
2018-12-18T06:12:14.868Z,2.69
2018-12-18T06:15:19.364Z,2.83
2018-12-18T06:18:23.852Z,2.78
2018-12-18T06:21:28.291Z,2.69
2018-12-18T06:24:32.886Z,2.75
2018-12-18T06:27:37.494Z,2.74
2018-12-18T06:30:42.076Z,2.77
2018-12-18T06:33:46.755Z,2.73
2018-12-18T06:36:51.318Z,2.76
2018-12-18T06:39:55.913Z,2.80
2018-12-18T06:43:00.553Z,2.77
2018-12-18T06:46:05.262Z,2.79
2018-12-18T06:49:09.927Z,2.70
2018-12-18T06:52:14.544Z,2.53
2018-12-18T06:55:19.108Z,2.48
2018-12-18T06:58:23.743Z,2.45
2018-12-18T07:01:28.304Z,2.42
2018-12-18T07:04:32.907Z,2.30
2018-12-18T07:07:37.438Z,2.24
2018-12-18T07:10:42.171Z,2.20
2018-12-18T07:13:46.989Z,2.18
2018-12-18T07:16:51.532Z,2.25
2018-12-18T07:19:56.325Z,2.28
2018-12-18T07:23:00.909Z,2.31
2018-12-18T07:26:05.688Z,2.30
2018-12-18T07:29:10.200Z,2.35
2018-12-18T07:32:14.861Z,2.38
2018-12-18T07:35:23.213Z,2.35
2018-12-18T07:38:25.967Z,2.35
2018-12-18T07:41:30.563Z,2.43
2018-12-18T07:44:35.128Z,2.49
2018-12-18T07:47:39.764Z,2.51
2018-12-18T07:50:44.242Z,2.51
2018-12-18T07:53:48.831Z,2.55
2018-12-18T07:56:53.463Z,2.66
2018-12-18T07:59:57.949Z,2.66
2018-12-18T08:03:02.877Z,2.75
2018-12-18T08:06:07.363Z,2.63
2018-12-18T08:09:11.926Z,2.69
2018-12-18T08:12:18.464Z,2.79
2018-12-18T08:15:23.124Z,2.89
2018-12-18T08:18:27.620Z,2.90
2018-12-18T08:21:32.248Z,3.04
2018-12-18T08:24:36.931Z,3.00
2018-12-18T08:27:41.429Z,3.07
2018-12-18T08:30:45.957Z,3.02
2018-12-18T08:33:50.473Z,3.14
2018-12-18T08:36:55.040Z,3.17
2018-12-18T08:39:59.604Z,3.18
2018-12-18T08:43:12.578Z,3.31
2018-12-18T08:46:17.538Z,3.29
2018-12-18T08:49:22.162Z,3.28
2018-12-18T08:52:26.787Z,3.35
2018-12-18T08:55:31.253Z,3.44
2018-12-18T08:58:35.792Z,3.39
2018-12-18T09:01:40.452Z,3.44
2018-12-18T09:04:45.045Z,3.58
2018-12-18T09:07:49.759Z,3.55
2018-12-18T09:10:54.316Z,3.66
2018-12-18T09:13:59.025Z,3.80
2018-12-18T09:17:04.490Z,3.69
2018-12-18T09:20:09.325Z,3.76
2018-12-18T09:23:14.100Z,3.65
2018-12-18T09:26:18.699Z,3.81
2018-12-18T09:29:23.241Z,3.97
2018-12-18T09:32:27.885Z,4.10
2018-12-18T09:35:32.528Z,4.35
2018-12-18T09:38:43.363Z,4.41
2018-12-18T09:41:48.564Z,4.42
2018-12-18T09:44:54.244Z,4.48
2018-12-18T09:47:58.766Z,4.51
2018-12-18T09:51:03.484Z,4.21
2018-12-18T09:54:08.154Z,4.43
2018-12-18T09:58:18.901Z,4.65
2018-12-18T10:01:23.595Z,4.44
2018-12-18T10:04:28.100Z,4.15
2018-12-18T10:07:32.684Z,4.04
2018-12-18T10:10:37.375Z,3.84
2018-12-18T10:13:42.049Z,3.98
2018-12-18T10:16:46.658Z,4.11
2018-12-18T10:19:51.251Z,4.27
2018-12-18T10:22:55.800Z,4.43
2018-12-18T10:26:00.362Z,4.87
2018-12-18T10:29:04.996Z,5.32
2018-12-18T10:32:09.598Z,5.03
2018-12-18T10:35:14.409Z,5.39
2018-12-18T10:38:19.666Z,5.18
2018-12-18T10:41:24.202Z,5.43
2018-12-18T10:44:28.802Z,5.65
2018-12-18T10:47:33.328Z,6.10
2018-12-18T10:50:37.917Z,6.13
2018-12-18T10:53:42.483Z,6.27
2018-12-18T10:56:46.971Z,6.38
2018-12-18T10:59:51.685Z,6.07
2018-12-18T11:02:56.359Z,5.82
2018-12-18T11:06:00.962Z,5.97
2018-12-18T11:09:09.374Z,5.94
2018-12-18T11:12:15.833Z,6.03
2018-12-18T11:15:20.581Z,5.93
2018-12-18T11:18:25.198Z,5.93
2018-12-18T11:21:29.776Z,6.08
2018-12-18T11:24:34.341Z,6.03
2018-12-18T11:27:38.992Z,6.11
2018-12-18T11:30:43.657Z,6.08
2018-12-18T11:33:48.157Z,6.28
2018-12-18T11:36:52.751Z,6.28
2018-12-18T11:39:57.272Z,6.31
2018-12-18T11:43:01.688Z,6.49
2018-12-18T11:46:06.395Z,6.64
2018-12-18T11:49:11.106Z,6.61
2018-12-18T11:52:15.652Z,6.77
2018-12-18T11:55:20.168Z,6.91
2018-12-18T11:58:24.767Z,6.60
2018-12-18T12:01:29.425Z,6.57
2018-12-18T12:04:34.062Z,6.62
2018-12-18T12:07:38.639Z,6.83
2018-12-18T12:10:43.370Z,6.69
2018-12-18T12:13:48.137Z,6.85
2018-12-18T12:16:52.606Z,6.88
2018-12-18T12:19:57.207Z,7.12
2018-12-18T12:23:01.845Z,7.03
2018-12-18T12:26:11.667Z,7.05
2018-12-18T12:29:16.296Z,7.00
2018-12-18T12:32:21.015Z,7.38
2018-12-18T12:35:25.569Z,7.17
2018-12-18T12:38:30.054Z,7.45
2018-12-18T12:41:34.622Z,7.10
2018-12-18T12:44:39.117Z,7.07
2018-12-18T12:47:48.081Z,7.18
2018-12-18T12:50:52.712Z,7.18
2018-12-18T12:53:57.259Z,7.23
2018-12-18T12:57:01.900Z,7.07
2018-12-18T13:00:07.970Z,7.16
2018-12-18T13:03:12.502Z,7.28
2018-12-18T13:06:17.066Z,7.24
2018-12-18T13:09:21.984Z,7.30
2018-12-18T13:12:26.749Z,7.27
2018-12-18T13:15:31.238Z,7.41
2018-12-18T13:18:36.412Z,7.36
2018-12-18T13:21:41.123Z,7.24
2018-12-18T13:24:45.555Z,7.24
2018-12-18T13:27:50.176Z,7.07
2018-12-18T13:30:54.930Z,6.98
2018-12-18T13:33:59.688Z,7.07
2018-12-18T13:37:04.476Z,7.07
2018-12-18T13:40:09.280Z,7.27
2018-12-18T13:43:13.855Z,6.88
2018-12-18T13:46:18.447Z,6.93
2018-12-18T13:49:22.944Z,6.77
2018-12-18T13:52:34.297Z,6.65
2018-12-18T13:55:38.857Z,6.25
2018-12-18T13:58:43.493Z,6.17
2018-12-18T14:01:48.012Z,6.15
2018-12-18T14:04:53.326Z,6.07
2018-12-18T14:07:58.422Z,5.86
2018-12-18T14:11:03.065Z,5.78
2018-12-18T14:14:08.103Z,5.70
2018-12-18T14:17:12.665Z,5.67
2018-12-18T14:20:17.286Z,5.58
2018-12-18T14:23:21.901Z,5.45
2018-12-18T14:26:26.433Z,5.45
2018-12-18T14:29:31.075Z,5.53
2018-12-18T14:32:35.672Z,5.43
2018-12-18T14:35:40.229Z,5.34
2018-12-18T14:38:44.786Z,5.08
2018-12-18T14:41:49.298Z,5.02
2018-12-18T14:44:53.900Z,4.99
2018-12-18T14:47:58.626Z,4.86
2018-12-18T14:51:03.215Z,4.92
2018-12-18T14:54:07.766Z,4.72
2018-12-18T14:57:12.432Z,4.40
2018-12-18T15:00:17.013Z,4.43
2018-12-18T15:03:22.691Z,4.41
2018-12-18T15:06:27.338Z,4.40
2018-12-18T15:09:31.941Z,4.34
2018-12-18T15:12:38.491Z,4.13
2018-12-18T15:15:43.071Z,4.05
2018-12-18T15:18:47.536Z,3.98
2018-12-18T15:21:52.062Z,4.05
2018-12-18T15:24:57.894Z,3.99
2018-12-18T15:28:02.519Z,4.07
2018-12-18T15:31:07.125Z,3.93
2018-12-18T15:34:11.605Z,3.97
2018-12-18T15:37:16.181Z,3.66
2018-12-18T15:40:20.657Z,3.81
2018-12-18T15:43:25.121Z,3.57
2018-12-18T15:46:29.799Z,3.28
2018-12-18T15:49:34.300Z,3.04
2018-12-18T15:52:38.877Z,2.88
2018-12-18T15:55:44.044Z,2.79
2018-12-18T15:58:48.577Z,2.59
2018-12-18T16:01:53.104Z,2.70
2018-12-18T16:04:57.672Z,2.53
2018-12-18T16:08:02.276Z,2.30
2018-12-18T16:11:06.807Z,2.22
2018-12-18T16:14:11.454Z,2.06
2018-12-18T16:17:23.590Z,1.97
2018-12-18T16:20:28.249Z,1.90
2018-12-18T16:23:32.850Z,1.95
2018-12-18T16:26:37.446Z,1.75
2018-12-18T16:29:42.272Z,1.68
2018-12-18T16:32:46.798Z,1.48
2018-12-18T16:35:52.359Z,1.42
2018-12-18T16:38:56.959Z,1.45
2018-12-18T16:42:01.695Z,1.42
2018-12-18T16:45:07.672Z,1.24
2018-12-18T16:48:12.188Z,1.23
2018-12-18T16:51:17.104Z,1.36
2018-12-18T16:54:22.584Z,1.46
2018-12-18T16:57:27.307Z,1.61
2018-12-18T17:00:32.077Z,1.62
2018-12-18T17:03:36.765Z,1.45
2018-12-18T17:06:41.451Z,1.44
2018-12-18T17:09:46.197Z,1.29
2018-12-18T17:12:56.230Z,1.33
2018-12-18T17:16:01.045Z,1.09
2018-12-18T17:22:20.018Z,0.93
2018-12-18T17:25:24.619Z,0.79
2018-12-18T17:28:29.293Z,0.70
2018-12-18T17:31:33.923Z,0.77
2018-12-18T17:34:38.500Z,0.68
2018-12-18T17:37:43.105Z,0.68
2018-12-18T17:40:48.172Z,0.59
2018-12-18T17:43:53.635Z,0.46
2018-12-18T17:46:58.177Z,0.48
2018-12-18T17:50:02.791Z,0.42
2018-12-18T17:53:07.302Z,0.32
2018-12-18T17:56:12.019Z,0.56
2018-12-18T17:59:16.600Z,0.31
2018-12-18T18:02:21.312Z,0.18
2018-12-18T18:05:25.880Z,0.23
2018-12-18T18:08:30.587Z,0.34
2018-12-18T18:11:35.213Z,0.35
2018-12-18T18:14:39.857Z,0.39
2018-12-18T18:17:44.456Z,0.66
2018-12-18T18:20:49.291Z,0.69
2018-12-18T18:23:53.879Z,0.83
2018-12-18T18:26:58.432Z,1.08
2018-12-18T18:30:03.009Z,1.09
2018-12-18T18:33:07.617Z,1.72
2018-12-18T18:36:12.370Z,1.54
2018-12-18T18:39:17.075Z,1.57
2018-12-18T18:42:21.871Z,1.44
2018-12-18T18:45:26.723Z,1.25
2018-12-18T18:48:31.398Z,1.20
2018-12-18T18:51:35.965Z,1.30
2018-12-18T18:54:40.501Z,1.43
2018-12-18T18:57:45.164Z,1.50
2018-12-18T19:00:49.869Z,1.64
2018-12-18T19:03:54.749Z,1.91
2018-12-18T19:06:59.902Z,2.12
2018-12-18T19:10:06.157Z,2.13
2018-12-18T19:13:10.940Z,2.29
2018-12-18T19:16:15.444Z,2.30
2018-12-18T19:19:19.931Z,2.36
2018-12-18T19:22:24.546Z,2.31
2018-12-18T19:25:29.043Z,2.37
2018-12-18T19:28:33.609Z,2.39
2018-12-18T19:31:38.403Z,2.39
2018-12-18T19:34:43.004Z,2.53
2018-12-18T19:37:47.535Z,2.51
2018-12-18T19:40:52.253Z,2.45
2018-12-18T19:43:56.812Z,2.47
2018-12-18T19:47:01.465Z,2.43
2018-12-18T19:50:07.150Z,2.41
2018-12-18T19:53:11.866Z,2.46
2018-12-18T19:56:16.381Z,2.52
2018-12-18T19:59:26.818Z,2.55
2018-12-18T20:02:32.105Z,2.58
2018-12-18T20:05:38.375Z,2.62
2018-12-18T20:08:43.269Z,2.53
2018-12-18T20:11:48.263Z,2.63
2018-12-18T20:14:54.942Z,2.79
2018-12-18T20:17:59.630Z,2.76
2018-12-18T20:21:04.447Z,2.76
2018-12-18T20:24:08.927Z,2.70
2018-12-18T20:27:13.481Z,2.80
2018-12-18T20:30:18.153Z,2.93
2018-12-18T20:33:23.102Z,2.88
2018-12-18T20:36:27.950Z,2.81
2018-12-18T20:39:32.708Z,2.91
2018-12-18T20:42:37.301Z,2.82
2018-12-18T20:45:41.835Z,2.77
2018-12-18T20:48:46.335Z,2.82
2018-12-18T20:51:51.001Z,2.81
2018-12-18T20:54:55.798Z,2.87
2018-12-18T20:58:00.577Z,2.89
2018-12-18T21:01:05.510Z,3.04
2018-12-18T21:04:10.261Z,2.93
2018-12-18T21:07:14.874Z,2.92
2018-12-18T21:10:19.725Z,2.91
2018-12-18T21:13:31.775Z,2.91
2018-12-18T21:16:36.394Z,2.90
2018-12-18T21:19:42.084Z,2.92
2018-12-18T21:22:46.820Z,3.00
2018-12-18T21:25:51.401Z,2.96
2018-12-18T21:28:56.148Z,3.04
2018-12-18T21:32:00.743Z,2.97
2018-12-18T21:35:06.014Z,3.05
2018-12-18T21:38:10.688Z,3.01
2018-12-18T21:41:17.012Z,2.87
2018-12-18T21:44:21.813Z,2.95
2018-12-18T21:47:26.605Z,2.95
2018-12-18T21:50:31.348Z,2.88
2018-12-18T21:53:35.942Z,2.90
2018-12-18T21:56:40.599Z,2.99
2018-12-18T21:59:45.340Z,2.89
2018-12-18T22:02:51.462Z,2.79
2018-12-18T22:05:56.572Z,2.80
2018-12-18T22:09:01.226Z,2.78
2018-12-18T22:12:05.756Z,2.98
2018-12-18T22:15:10.398Z,2.91
2018-12-18T22:18:15.121Z,2.82
2018-12-18T22:21:19.695Z,2.73
2018-12-18T22:24:24.553Z,2.83
2018-12-18T22:27:29.143Z,2.80
2018-12-18T22:30:33.814Z,2.72
2018-12-18T22:33:38.430Z,2.75
2018-12-18T22:36:43.035Z,2.79
2018-12-18T22:39:47.552Z,2.73
2018-12-18T22:42:52.185Z,2.66
2018-12-18T22:45:56.811Z,2.60
2018-12-18T22:49:01.395Z,2.65
2018-12-18T22:52:05.954Z,2.65
2018-12-18T22:55:10.603Z,2.57
2018-12-18T22:58:15.320Z,2.58
2018-12-18T23:01:25.114Z,2.54
2018-12-18T23:04:29.743Z,2.55
2018-12-18T23:07:34.385Z,2.53
2018-12-18T23:10:38.932Z,2.58
2018-12-18T23:13:43.532Z,2.54
2018-12-18T23:16:48.195Z,2.50
2018-12-18T23:19:52.786Z,2.52
2018-12-18T23:22:57.411Z,2.49
2018-12-18T23:26:02.047Z,2.44
2018-12-18T23:29:06.733Z,2.46
2018-12-18T23:32:11.266Z,2.38
2018-12-18T23:35:15.746Z,2.40
2018-12-18T23:38:20.327Z,2.59
2018-12-18T23:41:24.829Z,2.48
2018-12-18T23:44:30.087Z,2.41
2018-12-18T23:47:34.877Z,2.34
2018-12-18T23:50:39.534Z,2.51
2018-12-18T23:53:44.290Z,2.36
2018-12-18T23:56:48.825Z,2.38
2018-12-18T23:59:53.403Z,2.30
